DIRECCIÓN GENERAL DE AERONÁUTICA CIVIL
DIRECCIÓN METEOROLÓGICA DE CHILE
INFORMACIÓN METAR Y TAF

FIR PUERTO MONTT

Estación: SCQP
METAR SCQP 292300Z 18002KT 0500 R01/0300V0550 FG FEW002 04/03 Q1021=

TAF SCQP 292258Z 3000/3024 VRB02KT 0800 FG BKN002 TNM01/3010Z TX11/ 2919Z TEMPO 3002/3006 3000 BR HZ NSC BECMG 3006/3008 0400 FG VV/// BECMG 3014/3016 19006KT 9999 NSW FEW030=

Estación: SCVD
METAR SCVD 292300Z AUTO 24003KT 9999 SCT029 BKN033 07/07 Q1022=

TAF SCVD 291052Z 2912/3000 04005KT 6000 -RA BKN030 TN07/2912Z TX10/2918Z BECMG 2916/2918 19005KT 9999 NSW BECMG 2920/2921 SCT015 TEMPO 2922/3000 2000 BR SCT008=

Estación: SCJO
METAR SCJO 292300Z 13001KT 9999 BKN035 07/05 Q1022=

TAF SCJO 291053Z 2912/3000 04005KT 6000 -RA BKN030 TN06/2912Z TX10/2918Z BECMG 2916/2918 22005KT 9999 NSW BECMG 2920/2921 SCT015 TEMPO 2922/3000 2000 BR SCT008=

Estación: SCTE
METAR SCTE 292300Z VRB03KT 7000 VCSH SCT045 07/06 Q1023 NOSIG=

TAF SCTE 292225Z 3000/3024 17004KT 9999 BKN040 TN00/3010Z TX10/3019Z BECMG 3002/3004 VRB02KT 5000 BR SCT040 BECMG 3006/3008 0800 FG OVC004 TEMPO 3011/3013 0400 FG OVC002 BECMG 3013/3015 5000 BR NSC BECMG 3015/3017 17010KT CAVOK=

Estación: SCPQ
METAR SCPQ 292300Z AUTO 23006KT CAVOK 05/03 Q1023=

TAF SCPQ 291053Z 2912/3000 36006KT 6000 -SHRA BKN030 TN06/2912Z TX10/2918 BECMG 2915/2917 23005KT 9999 NSW=

Estación: SCON
METAR SCON 292100Z 00000KT 9999 BKN030 08/05 Q1021=

TAF SCON NIL=

Estación: SCTN
METAR SCTN 292300Z AUTO 05003KT 010V090 CAVOK 05/05 Q1023=

TAF SCTN 291054Z 2912/3000 VRB02KT 6000 -SHRA BKN030 TN07/2912Z TX11/2918 BECMG 2914/2916 22005KT BECMG 2922/3000 VRB02KT 9999 NSW=

Estación: SCFT
METAR SCFT 292300Z AUTO 25006KT 210V280 //// SKC 06/M01 Q1021=

TAF SCFT NIL=

Estación: SCAP
METAR SCAP 292300Z AUTO 23010KT 200V260 //// // NSC 07/M00 Q1026=

TAF SCAP NIL=

Estación: SCMK
METAR SCMK 292200Z 32003KT 9999 BKN023 08/04 Q1021=

TAF SCMK 291054Z 2912/3000 23007KT 9999 BKN030 TN07/2912Z TX11/2918=

Estación: SCAS
METAR SCAS 292100Z 25008KT 9999 BKN033 07/03 Q1019=

TAF SCAS NIL=

Estación: SCCY
METAR SCCY 292300Z 06006KT 020V120 9999 SCT025 BKN033 04/01 Q1016=

TAF SCCY 291058Z 2912/3000 VRB02KT CAVOK TN04/2912Z TX08/2918Z BECMG 2922/3000 SCT030=

Estación: SCBA
METAR SCBA 292300Z AUTO 29012KT CAVOK 03/M02 Q1014=

TAF SCBA 292225Z 3000/3024 30010KT 9999 SCT040 TNM02/3010Z TX08/3019Z BECMG 3012/3014 30020KT CAVOK=

Estación: SCCC
METAR SCCC 292100Z 27024G34KT CAVOK 08/M10 Q1011=

TAF SCCC NIL=

Estación: SCHR
METAR SCHR 292100Z 29011KT 9999 SCT040 07/M04 Q1008=

TAF SCHR 291125Z 2912/3000 25008KT 9999 FEW030 TX07/2918Z TN02/3000Z BECMG 2921/2923 8000 -SHRA BKN015 TEMPO 2922/3000 VRB03KT 6000 -SHRASN BKN012=


Volver